sensor_id;sensor_type;location;lat;lon;timestamp;P1;durP1;ratioP1;P2;durP2;ratioP2
42332;SDS011;27984;51.476;5.702;2023-04-29T00:01:46;93.80;;;47.15;;
42332;SDS011;27984;51.476;5.702;2023-04-29T00:04:12;90.43;;;46.08;;
42332;SDS011;27984;51.476;5.702;2023-04-29T00:06:38;94.45;;;46.75;;
42332;SDS011;27984;51.476;5.702;2023-04-29T00:09:04;90.55;;;45.90;;
42332;SDS011;27984;51.476;5.702;2023-04-29T00:11:29;86.10;;;44.45;;
42332;SDS011;27984;51.476;5.702;2023-04-29T00:13:55;84.13;;;42.00;;
42332;SDS011;27984;51.476;5.702;2023-04-29T00:16:20;83.32;;;42.80;;
42332;SDS011;27984;51.476;5.702;2023-04-29T00:18:46;81.70;;;42.33;;
42332;SDS011;27984;51.476;5.702;2023-04-29T00:21:12;86.13;;;43.08;;
42332;SDS011;27984;51.476;5.702;2023-04-29T00:23:37;82.75;;;42.47;;
42332;SDS011;27984;51.476;5.702;2023-04-29T00:26:03;86.95;;;42.92;;
42332;SDS011;27984;51.476;5.702;2023-04-29T00:28:29;77.55;;;42.22;;
42332;SDS011;27984;51.476;5.702;2023-04-29T00:30:54;77.97;;;40.58;;
42332;SDS011;27984;51.476;5.702;2023-04-29T00:33:20;80.03;;;43.17;;
42332;SDS011;27984;51.476;5.702;2023-04-29T00:35:45;76.90;;;39.45;;
42332;SDS011;27984;51.476;5.702;2023-04-29T00:38:11;73.63;;;39.88;;
42332;SDS011;27984;51.476;5.702;2023-04-29T00:40:36;78.10;;;38.45;;
42332;SDS011;27984;51.476;5.702;2023-04-29T00:43:02;80.65;;;38.25;;
42332;SDS011;27984;51.476;5.702;2023-04-29T00:45:28;80.75;;;39.38;;
42332;SDS011;27984;51.476;5.702;2023-04-29T00:47:53;73.97;;;38.15;;
42332;SDS011;27984;51.476;5.702;2023-04-29T00:50:19;69.57;;;34.78;;
42332;SDS011;27984;51.476;5.702;2023-04-29T00:52:46;64.63;;;35.72;;
42332;SDS011;27984;51.476;5.702;2023-04-29T00:55:12;65.45;;;35.95;;
42332;SDS011;27984;51.476;5.702;2023-04-29T00:57:38;63.10;;;35.47;;
42332;SDS011;27984;51.476;5.702;2023-04-29T01:00:04;63.80;;;35.78;;
42332;SDS011;27984;51.476;5.702;2023-04-29T01:02:30;73.50;;;36.17;;
42332;SDS011;27984;51.476;5.702;2023-04-29T01:04:55;61.70;;;34.30;;
42332;SDS011;27984;51.476;5.702;2023-04-29T01:07:33;60.33;;;34.28;;
42332;SDS011;27984;51.476;5.702;2023-04-29T01:10:26;68.60;;;36.55;;
42332;SDS011;27984;51.476;5.702;2023-04-29T01:18:08;60.22;;;33.55;;
42332;SDS011;27984;51.476;5.702;2023-04-29T01:20:38;55.63;;;31.92;;
42332;SDS011;27984;51.476;5.702;2023-04-29T01:23:04;53.97;;;31.88;;
42332;SDS011;27984;51.476;5.702;2023-04-29T01:25:30;52.80;;;31.55;;
42332;SDS011;27984;51.476;5.702;2023-04-29T01:28:05;51.00;;;30.77;;
42332;SDS011;27984;51.476;5.702;2023-04-29T01:35:49;49.80;;;30.58;;
42332;SDS011;27984;51.476;5.702;2023-04-29T01:43:29;55.08;;;31.85;;
42332;SDS011;27984;51.476;5.702;2023-04-29T01:45:56;54.75;;;32.92;;
42332;SDS011;27984;51.476;5.702;2023-04-29T01:48:23;53.78;;;33.47;;
42332;SDS011;27984;51.476;5.702;2023-04-29T01:50:49;56.63;;;34.40;;
42332;SDS011;27984;51.476;5.702;2023-04-29T01:53:14;60.22;;;35.35;;
42332;SDS011;27984;51.476;5.702;2023-04-29T01:55:40;61.33;;;35.90;;
42332;SDS011;27984;51.476;5.702;2023-04-29T01:58:07;64.53;;;37.55;;
42332;SDS011;27984;51.476;5.702;2023-04-29T02:00:34;66.78;;;38.28;;
42332;SDS011;27984;51.476;5.702;2023-04-29T02:03:00;67.38;;;38.17;;
42332;SDS011;27984;51.476;5.702;2023-04-29T02:05:25;66.43;;;36.70;;
42332;SDS011;27984;51.476;5.702;2023-04-29T02:07:56;68.85;;;38.45;;
42332;SDS011;27984;51.476;5.702;2023-04-29T02:10:21;60.90;;;36.72;;
42332;SDS011;27984;51.476;5.702;2023-04-29T02:12:47;68.78;;;38.63;;
42332;SDS011;27984;51.476;5.702;2023-04-29T02:15:12;67.75;;;38.35;;
42332;SDS011;27984;51.476;5.702;2023-04-29T02:17:38;69.47;;;38.33;;
42332;SDS011;27984;51.476;5.702;2023-04-29T02:20:03;64.55;;;36.72;;
42332;SDS011;27984;51.476;5.702;2023-04-29T02:22:29;63.03;;;36.60;;
42332;SDS011;27984;51.476;5.702;2023-04-29T02:24:55;68.78;;;37.42;;
42332;SDS011;27984;51.476;5.702;2023-04-29T02:27:22;65.65;;;36.67;;
42332;SDS011;27984;51.476;5.702;2023-04-29T02:29:47;62.60;;;35.10;;
42332;SDS011;27984;51.476;5.702;2023-04-29T02:32:13;68.10;;;37.00;;
42332;SDS011;27984;51.476;5.702;2023-04-29T02:34:39;65.88;;;36.25;;
42332;SDS011;27984;51.476;5.702;2023-04-29T02:37:05;66.10;;;36.58;;
42332;SDS011;27984;51.476;5.702;2023-04-29T02:39:30;61.38;;;35.63;;
42332;SDS011;27984;51.476;5.702;2023-04-29T02:41:56;65.72;;;33.88;;
42332;SDS011;27984;51.476;5.702;2023-04-29T02:44:22;64.68;;;35.28;;
42332;SDS011;27984;51.476;5.702;2023-04-29T02:46:48;65.20;;;35.33;;
42332;SDS011;27984;51.476;5.702;2023-04-29T02:49:13;61.63;;;35.30;;
42332;SDS011;27984;51.476;5.702;2023-04-29T02:51:39;62.75;;;35.78;;
42332;SDS011;27984;51.476;5.702;2023-04-29T02:54:05;61.63;;;36.05;;
42332;SDS011;27984;51.476;5.702;2023-04-29T02:56:31;65.72;;;36.08;;
42332;SDS011;27984;51.476;5.702;2023-04-29T02:58:56;71.18;;;38.42;;
42332;SDS011;27984;51.476;5.702;2023-04-29T03:01:22;71.18;;;37.47;;
42332;SDS011;27984;51.476;5.702;2023-04-29T03:03:48;68.70;;;38.00;;
42332;SDS011;27984;51.476;5.702;2023-04-29T03:06:13;70.30;;;38.10;;
42332;SDS011;27984;51.476;5.702;2023-04-29T03:08:39;70.45;;;38.33;;
42332;SDS011;27984;51.476;5.702;2023-04-29T03:11:05;75.20;;;39.00;;
42332;SDS011;27984;51.476;5.702;2023-04-29T03:13:31;70.03;;;38.55;;
42332;SDS011;27984;51.476;5.702;2023-04-29T03:15:56;72.50;;;38.08;;
42332;SDS011;27984;51.476;5.702;2023-04-29T03:18:24;70.00;;;38.63;;
42332;SDS011;27984;51.476;5.702;2023-04-29T03:20:50;72.50;;;39.17;;
42332;SDS011;27984;51.476;5.702;2023-04-29T03:23:15;73.75;;;38.90;;
42332;SDS011;27984;51.476;5.702;2023-04-29T03:25:41;67.38;;;38.13;;
42332;SDS011;27984;51.476;5.702;2023-04-29T03:28:06;71.60;;;38.65;;
42332;SDS011;27984;51.476;5.702;2023-04-29T03:30:32;67.97;;;38.38;;
42332;SDS011;27984;51.476;5.702;2023-04-29T03:32:58;65.93;;;37.85;;
42332;SDS011;27984;51.476;5.702;2023-04-29T03:35:23;71.10;;;37.67;;
42332;SDS011;27984;51.476;5.702;2023-04-29T03:37:49;74.85;;;38.47;;
42332;SDS011;27984;51.476;5.702;2023-04-29T03:40:15;65.18;;;35.95;;
42332;SDS011;27984;51.476;5.702;2023-04-29T03:42:40;66.07;;;37.15;;
42332;SDS011;27984;51.476;5.702;2023-04-29T03:45:06;68.80;;;34.85;;
42332;SDS011;27984;51.476;5.702;2023-04-29T03:47:32;66.97;;;34.80;;
42332;SDS011;27984;51.476;5.702;2023-04-29T03:49:58;58.75;;;32.85;;
42332;SDS011;27984;51.476;5.702;2023-04-29T03:52:23;59.45;;;32.38;;
42332;SDS011;27984;51.476;5.702;2023-04-29T03:54:49;59.50;;;32.08;;
42332;SDS011;27984;51.476;5.702;2023-04-29T03:57:15;63.40;;;32.03;;
42332;SDS011;27984;51.476;5.702;2023-04-29T03:59:40;58.15;;;30.42;;
42332;SDS011;27984;51.476;5.702;2023-04-29T04:02:06;60.58;;;31.65;;
42332;SDS011;27984;51.476;5.702;2023-04-29T04:04:32;60.78;;;33.63;;
42332;SDS011;27984;51.476;5.702;2023-04-29T04:06:58;62.88;;;32.80;;
42332;SDS011;27984;51.476;5.702;2023-04-29T04:09:23;58.63;;;31.17;;
42332;SDS011;27984;51.476;5.702;2023-04-29T04:11:49;55.38;;;31.92;;
42332;SDS011;27984;51.476;5.702;2023-04-29T04:14:14;58.33;;;31.75;;
42332;SDS011;27984;51.476;5.702;2023-04-29T04:16:40;60.85;;;31.42;;
42332;SDS011;27984;51.476;5.702;2023-04-29T04:19:05;60.45;;;33.30;;
42332;SDS011;27984;51.476;5.702;2023-04-29T04:21:31;63.67;;;31.85;;
42332;SDS011;27984;51.476;5.702;2023-04-29T04:23:56;60.58;;;32.75;;
42332;SDS011;27984;51.476;5.702;2023-04-29T04:26:22;70.00;;;34.80;;
42332;SDS011;27984;51.476;5.702;2023-04-29T04:28:47;65.72;;;34.83;;
42332;SDS011;27984;51.476;5.702;2023-04-29T04:31:13;71.43;;;35.05;;
42332;SDS011;27984;51.476;5.702;2023-04-29T04:33:39;68.93;;;35.70;;
42332;SDS011;27984;51.476;5.702;2023-04-29T04:36:05;68.32;;;35.05;;
42332;SDS011;27984;51.476;5.702;2023-04-29T04:38:31;72.28;;;36.80;;
42332;SDS011;27984;51.476;5.702;2023-04-29T04:40:57;75.43;;;36.10;;
42332;SDS011;27984;51.476;5.702;2023-04-29T04:43:23;73.47;;;36.65;;
42332;SDS011;27984;51.476;5.702;2023-04-29T04:45:48;70.57;;;35.70;;
42332;SDS011;27984;51.476;5.702;2023-04-29T04:48:14;68.38;;;34.92;;
42332;SDS011;27984;51.476;5.702;2023-04-29T04:50:40;63.05;;;33.15;;
42332;SDS011;27984;51.476;5.702;2023-04-29T04:53:05;69.40;;;35.15;;
42332;SDS011;27984;51.476;5.702;2023-04-29T04:55:31;68.22;;;35.03;;
42332;SDS011;27984;51.476;5.702;2023-04-29T04:57:57;66.82;;;34.25;;
42332;SDS011;27984;51.476;5.702;2023-04-29T05:00:23;69.57;;;34.97;;
42332;SDS011;27984;51.476;5.702;2023-04-29T05:02:48;66.80;;;33.22;;
42332;SDS011;27984;51.476;5.702;2023-04-29T05:05:14;62.42;;;33.50;;
42332;SDS011;27984;51.476;5.702;2023-04-29T05:07:39;63.97;;;33.22;;
42332;SDS011;27984;51.476;5.702;2023-04-29T05:10:05;61.70;;;32.33;;
42332;SDS011;27984;51.476;5.702;2023-04-29T05:12:32;62.40;;;31.77;;
42332;SDS011;27984;51.476;5.702;2023-04-29T05:14:59;63.83;;;30.73;;
42332;SDS011;27984;51.476;5.702;2023-04-29T05:17:25;60.15;;;31.23;;
42332;SDS011;27984;51.476;5.702;2023-04-29T05:19:50;57.88;;;29.65;;
42332;SDS011;27984;51.476;5.702;2023-04-29T05:22:16;58.45;;;31.13;;
42332;SDS011;27984;51.476;5.702;2023-04-29T05:24:41;58.78;;;30.67;;
42332;SDS011;27984;51.476;5.702;2023-04-29T05:27:07;55.83;;;30.48;;
42332;SDS011;27984;51.476;5.702;2023-04-29T05:29:32;54.08;;;30.05;;
42332;SDS011;27984;51.476;5.702;2023-04-29T05:31:58;55.00;;;30.25;;
42332;SDS011;27984;51.476;5.702;2023-04-29T05:34:24;52.75;;;30.35;;
42332;SDS011;27984;51.476;5.702;2023-04-29T05:36:49;57.40;;;30.52;;
42332;SDS011;27984;51.476;5.702;2023-04-29T05:39:15;54.78;;;30.23;;
42332;SDS011;27984;51.476;5.702;2023-04-29T05:41:41;54.85;;;30.60;;
42332;SDS011;27984;51.476;5.702;2023-04-29T05:44:07;56.90;;;30.02;;
42332;SDS011;27984;51.476;5.702;2023-04-29T05:46:33;54.50;;;29.83;;
42332;SDS011;27984;51.476;5.702;2023-04-29T05:48:58;54.72;;;29.10;;
42332;SDS011;27984;51.476;5.702;2023-04-29T05:51:24;53.53;;;29.63;;
42332;SDS011;27984;51.476;5.702;2023-04-29T05:53:50;55.85;;;30.58;;
42332;SDS011;27984;51.476;5.702;2023-04-29T05:56:15;55.08;;;30.35;;
42332;SDS011;27984;51.476;5.702;2023-04-29T05:58:41;50.80;;;29.00;;
42332;SDS011;27984;51.476;5.702;2023-04-29T06:01:07;59.65;;;30.80;;
42332;SDS011;27984;51.476;5.702;2023-04-29T06:03:33;56.60;;;31.17;;
42332;SDS011;27984;51.476;5.702;2023-04-29T06:05:58;52.17;;;29.95;;
42332;SDS011;27984;51.476;5.702;2023-04-29T06:08:24;53.65;;;30.00;;
42332;SDS011;27984;51.476;5.702;2023-04-29T06:10:50;52.13;;;30.80;;
42332;SDS011;27984;51.476;5.702;2023-04-29T06:13:16;56.13;;;29.98;;
42332;SDS011;27984;51.476;5.702;2023-04-29T06:15:41;58.53;;;30.10;;
42332;SDS011;27984;51.476;5.702;2023-04-29T06:18:07;50.83;;;29.63;;
42332;SDS011;27984;51.476;5.702;2023-04-29T06:20:33;53.72;;;29.05;;
42332;SDS011;27984;51.476;5.702;2023-04-29T06:22:58;50.90;;;28.80;;
42332;SDS011;27984;51.476;5.702;2023-04-29T06:25:24;57.20;;;29.75;;
42332;SDS011;27984;51.476;5.702;2023-04-29T06:27:49;53.45;;;29.75;;
42332;SDS011;27984;51.476;5.702;2023-04-29T06:30:15;51.65;;;29.05;;
42332;SDS011;27984;51.476;5.702;2023-04-29T06:32:40;48.75;;;30.02;;
42332;SDS011;27984;51.476;5.702;2023-04-29T06:35:06;50.92;;;29.48;;
42332;SDS011;27984;51.476;5.702;2023-04-29T06:37:32;52.83;;;29.20;;
42332;SDS011;27984;51.476;5.702;2023-04-29T06:39:58;49.80;;;28.92;;
42332;SDS011;27984;51.476;5.702;2023-04-29T06:42:23;48.55;;;29.50;;
42332;SDS011;27984;51.476;5.702;2023-04-29T06:44:49;54.00;;;30.92;;
42332;SDS011;27984;51.476;5.702;2023-04-29T06:47:14;48.17;;;28.80;;
42332;SDS011;27984;51.476;5.702;2023-04-29T06:49:40;51.30;;;29.65;;
42332;SDS011;27984;51.476;5.702;2023-04-29T06:52:07;46.20;;;29.00;;
42332;SDS011;27984;51.476;5.702;2023-04-29T06:54:33;46.80;;;30.00;;
42332;SDS011;27984;51.476;5.702;2023-04-29T06:56:58;47.83;;;29.08;;
42332;SDS011;27984;51.476;5.702;2023-04-29T06:59:24;47.55;;;29.40;;
42332;SDS011;27984;51.476;5.702;2023-04-29T07:01:50;53.30;;;28.58;;
42332;SDS011;27984;51.476;5.702;2023-04-29T07:04:16;46.78;;;27.88;;
42332;SDS011;27984;51.476;5.702;2023-04-29T07:06:41;49.92;;;27.58;;
42332;SDS011;27984;51.476;5.702;2023-04-29T07:09:10;47.85;;;28.27;;
42332;SDS011;27984;51.476;5.702;2023-04-29T07:11:37;46.55;;;27.42;;
42332;SDS011;27984;51.476;5.702;2023-04-29T07:14:03;44.83;;;26.15;;
42332;SDS011;27984;51.476;5.702;2023-04-29T07:16:29;43.20;;;26.55;;
42332;SDS011;27984;51.476;5.702;2023-04-29T07:18:54;39.85;;;25.27;;
42332;SDS011;27984;51.476;5.702;2023-04-29T07:21:20;37.75;;;25.15;;
42332;SDS011;27984;51.476;5.702;2023-04-29T07:23:45;43.42;;;26.38;;
42332;SDS011;27984;51.476;5.702;2023-04-29T07:26:12;39.28;;;25.98;;
42332;SDS011;27984;51.476;5.702;2023-04-29T07:28:39;42.72;;;24.73;;
42332;SDS011;27984;51.476;5.702;2023-04-29T07:31:06;38.85;;;24.05;;
42332;SDS011;27984;51.476;5.702;2023-04-29T07:33:32;35.08;;;22.17;;
42332;SDS011;27984;51.476;5.702;2023-04-29T07:35:58;38.58;;;23.25;;
42332;SDS011;27984;51.476;5.702;2023-04-29T07:38:23;35.90;;;22.30;;
42332;SDS011;27984;51.476;5.702;2023-04-29T07:40:50;33.28;;;21.52;;
42332;SDS011;27984;51.476;5.702;2023-04-29T07:43:16;34.00;;;21.67;;
42332;SDS011;27984;51.476;5.702;2023-04-29T07:45:41;36.00;;;22.05;;
42332;SDS011;27984;51.476;5.702;2023-04-29T07:48:07;32.90;;;20.38;;
42332;SDS011;27984;51.476;5.702;2023-04-29T07:50:35;29.98;;;20.13;;
42332;SDS011;27984;51.476;5.702;2023-04-29T07:53:01;26.38;;;19.42;;
42332;SDS011;27984;51.476;5.702;2023-04-29T07:55:27;29.40;;;19.75;;
42332;SDS011;27984;51.476;5.702;2023-04-29T07:57:56;30.90;;;19.80;;
42332;SDS011;27984;51.476;5.702;2023-04-29T08:00:22;28.30;;;19.27;;
42332;SDS011;27984;51.476;5.702;2023-04-29T08:02:54;27.95;;;19.08;;
42332;SDS011;27984;51.476;5.702;2023-04-29T08:05:20;28.17;;;18.55;;
42332;SDS011;27984;51.476;5.702;2023-04-29T08:07:47;27.70;;;18.00;;
42332;SDS011;27984;51.476;5.702;2023-04-29T08:10:16;28.38;;;18.20;;
42332;SDS011;27984;51.476;5.702;2023-04-29T08:12:46;28.30;;;17.63;;
42332;SDS011;27984;51.476;5.702;2023-04-29T08:15:12;25.90;;;17.85;;
42332;SDS011;27984;51.476;5.702;2023-04-29T08:17:38;28.67;;;19.70;;
42332;SDS011;27984;51.476;5.702;2023-04-29T08:20:04;28.08;;;18.85;;
42332;SDS011;27984;51.476;5.702;2023-04-29T08:22:31;28.50;;;19.25;;
42332;SDS011;27984;51.476;5.702;2023-04-29T08:24:57;27.95;;;18.65;;
42332;SDS011;27984;51.476;5.702;2023-04-29T08:27:23;29.98;;;18.98;;
42332;SDS011;27984;51.476;5.702;2023-04-29T08:29:48;26.52;;;18.60;;
42332;SDS011;27984;51.476;5.702;2023-04-29T08:32:14;26.90;;;17.92;;
42332;SDS011;27984;51.476;5.702;2023-04-29T08:34:39;26.10;;;18.05;;
42332;SDS011;27984;51.476;5.702;2023-04-29T08:37:05;29.63;;;17.52;;
42332;SDS011;27984;51.476;5.702;2023-04-29T08:39:31;24.63;;;17.33;;
42332;SDS011;27984;51.476;5.702;2023-04-29T08:41:57;22.98;;;17.35;;
42332;SDS011;27984;51.476;5.702;2023-04-29T08:44:26;30.65;;;18.58;;
42332;SDS011;27984;51.476;5.702;2023-04-29T08:46:54;25.42;;;17.73;;
42332;SDS011;27984;51.476;5.702;2023-04-29T08:49:19;27.38;;;17.63;;
42332;SDS011;27984;51.476;5.702;2023-04-29T08:51:47;26.92;;;17.75;;
42332;SDS011;27984;51.476;5.702;2023-04-29T08:54:15;25.48;;;17.88;;
42332;SDS011;27984;51.476;5.702;2023-04-29T08:56:41;26.48;;;17.55;;
42332;SDS011;27984;51.476;5.702;2023-04-29T08:59:09;24.00;;;16.83;;
42332;SDS011;27984;51.476;5.702;2023-04-29T09:01:36;27.17;;;17.90;;
42332;SDS011;27984;51.476;5.702;2023-04-29T09:06:34;23.15;;;16.35;;
42332;SDS011;27984;51.476;5.702;2023-04-29T09:08:59;22.13;;;16.60;;
42332;SDS011;27984;51.476;5.702;2023-04-29T09:11:27;22.63;;;16.13;;
42332;SDS011;27984;51.476;5.702;2023-04-29T09:14:00;22.55;;;15.80;;
42332;SDS011;27984;51.476;5.702;2023-04-29T09:16:26;23.10;;;15.75;;
42332;SDS011;27984;51.476;5.702;2023-04-29T09:18:52;22.83;;;15.93;;
42332;SDS011;27984;51.476;5.702;2023-04-29T09:21:23;21.90;;;15.00;;
42332;SDS011;27984;51.476;5.702;2023-04-29T09:23:57;24.90;;;15.88;;
42332;SDS011;27984;51.476;5.702;2023-04-29T09:26:24;22.83;;;15.25;;
42332;SDS011;27984;51.476;5.702;2023-04-29T09:29:10;22.73;;;15.30;;
42332;SDS011;27984;51.476;5.702;2023-04-29T09:31:38;23.52;;;15.48;;
42332;SDS011;27984;51.476;5.702;2023-04-29T09:34:04;24.30;;;15.60;;
42332;SDS011;27984;51.476;5.702;2023-04-29T09:39:18;22.45;;;14.98;;
42332;SDS011;27984;51.476;5.702;2023-04-29T09:44:16;24.08;;;14.75;;
42332;SDS011;27984;51.476;5.702;2023-04-29T09:46:42;23.40;;;14.85;;
42332;SDS011;27984;51.476;5.702;2023-04-29T09:49:22;22.23;;;14.93;;
42332;SDS011;27984;51.476;5.702;2023-04-29T09:52:08;21.70;;;14.95;;
42332;SDS011;27984;51.476;5.702;2023-04-29T09:54:35;21.48;;;13.98;;
42332;SDS011;27984;51.476;5.702;2023-04-29T09:57:02;22.60;;;14.00;;
42332;SDS011;27984;51.476;5.702;2023-04-29T09:59:32;21.38;;;13.77;;
42332;SDS011;27984;51.476;5.702;2023-04-29T10:02:00;24.02;;;14.73;;
42332;SDS011;27984;51.476;5.702;2023-04-29T10:04:28;19.00;;;13.90;;
42332;SDS011;27984;51.476;5.702;2023-04-29T10:06:56;19.48;;;14.10;;
42332;SDS011;27984;51.476;5.702;2023-04-29T10:09:24;21.90;;;13.75;;
42332;SDS011;27984;51.476;5.702;2023-04-29T10:11:50;20.70;;;13.60;;
42332;SDS011;27984;51.476;5.702;2023-04-29T10:14:18;20.40;;;14.27;;
42332;SDS011;27984;51.476;5.702;2023-04-29T10:16:49;22.40;;;14.27;;
42332;SDS011;27984;51.476;5.702;2023-04-29T10:19:37;25.30;;;14.73;;
42332;SDS011;27984;51.476;5.702;2023-04-29T10:22:10;22.33;;;14.38;;
42332;SDS011;27984;51.476;5.702;2023-04-29T10:24:40;26.87;;;14.07;;
42332;SDS011;27984;51.476;5.702;2023-04-29T10:27:08;21.98;;;13.23;;
42332;SDS011;27984;51.476;5.702;2023-04-29T10:29:36;20.50;;;13.30;;
42332;SDS011;27984;51.476;5.702;2023-04-29T10:32:06;19.60;;;12.07;;
42332;SDS011;27984;51.476;5.702;2023-04-29T10:34:33;22.35;;;12.15;;
42332;SDS011;27984;51.476;5.702;2023-04-29T10:37:01;16.70;;;11.73;;
42332;SDS011;27984;51.476;5.702;2023-04-29T10:39:41;18.33;;;13.02;;
42332;SDS011;27984;51.476;5.702;2023-04-29T10:42:24;17.85;;;12.05;;
42332;SDS011;27984;51.476;5.702;2023-04-29T10:53:11;21.48;;;12.10;;
42332;SDS011;27984;51.476;5.702;2023-04-29T10:55:38;15.13;;;11.27;;
42332;SDS011;27984;51.476;5.702;2023-04-29T10:58:04;16.08;;;11.05;;
42332;SDS011;27984;51.476;5.702;2023-04-29T11:03:43;15.65;;;11.05;;
42332;SDS011;27984;51.476;5.702;2023-04-29T11:09:49;16.25;;;11.38;;
42332;SDS011;27984;51.476;5.702;2023-04-29T11:11:52;18.70;;;11.82;;
42332;SDS011;27984;51.476;5.702;2023-04-29T11:14:31;16.98;;;11.05;;
42332;SDS011;27984;51.476;5.702;2023-04-29T11:17:02;15.98;;;11.13;;
42332;SDS011;27984;51.476;5.702;2023-04-29T11:19:35;14.50;;;9.73;;
42332;SDS011;27984;51.476;5.702;2023-04-29T11:22:10;13.35;;;9.68;;
42332;SDS011;27984;51.476;5.702;2023-04-29T11:24:50;17.20;;;10.00;;
42332;SDS011;27984;51.476;5.702;2023-04-29T11:27:20;11.60;;;8.98;;
42332;SDS011;27984;51.476;5.702;2023-04-29T11:29:49;12.13;;;9.20;;
42332;SDS011;27984;51.476;5.702;2023-04-29T11:32:19;14.00;;;9.50;;
42332;SDS011;27984;51.476;5.702;2023-04-29T11:34:45;13.23;;;9.50;;
42332;SDS011;27984;51.476;5.702;2023-04-29T11:37:11;16.08;;;9.65;;
42332;SDS011;27984;51.476;5.702;2023-04-29T11:39:37;15.73;;;10.45;;
42332;SDS011;27984;51.476;5.702;2023-04-29T11:42:05;17.83;;;10.13;;
42332;SDS011;27984;51.476;5.702;2023-04-29T11:44:34;12.07;;;9.10;;
42332;SDS011;27984;51.476;5.702;2023-04-29T11:47:02;17.70;;;9.13;;
42332;SDS011;27984;51.476;5.702;2023-04-29T11:49:31;11.70;;;9.00;;
42332;SDS011;27984;51.476;5.702;2023-04-29T11:51:58;15.73;;;9.52;;
42332;SDS011;27984;51.476;5.702;2023-04-29T11:54:27;13.30;;;9.25;;
42332;SDS011;27984;51.476;5.702;2023-04-29T11:56:53;15.77;;;10.02;;
42332;SDS011;27984;51.476;5.702;2023-04-29T11:59:19;15.90;;;9.43;;
42332;SDS011;27984;51.476;5.702;2023-04-29T12:01:46;14.15;;;9.95;;
42332;SDS011;27984;51.476;5.702;2023-04-29T12:04:15;13.85;;;10.00;;
42332;SDS011;27984;51.476;5.702;2023-04-29T12:06:41;12.68;;;8.80;;
42332;SDS011;27984;51.476;5.702;2023-04-29T12:09:06;12.95;;;9.18;;
42332;SDS011;27984;51.476;5.702;2023-04-29T12:11:32;12.20;;;8.80;;
42332;SDS011;27984;51.476;5.702;2023-04-29T12:13:59;14.73;;;8.40;;
42332;SDS011;27984;51.476;5.702;2023-04-29T12:16:26;13.88;;;8.98;;
42332;SDS011;27984;51.476;5.702;2023-04-29T12:18:53;11.93;;;8.55;;
42332;SDS011;27984;51.476;5.702;2023-04-29T12:21:20;11.57;;;8.60;;
42332;SDS011;27984;51.476;5.702;2023-04-29T12:23:47;10.95;;;8.25;;
42332;SDS011;27984;51.476;5.702;2023-04-29T12:26:12;10.85;;;7.82;;
42332;SDS011;27984;51.476;5.702;2023-04-29T12:28:39;12.20;;;7.35;;
42332;SDS011;27984;51.476;5.702;2023-04-29T12:31:07;11.95;;;7.78;;
42332;SDS011;27984;51.476;5.702;2023-04-29T12:33:35;11.13;;;7.45;;
42332;SDS011;27984;51.476;5.702;2023-04-29T12:36:01;8.68;;;7.15;;
42332;SDS011;27984;51.476;5.702;2023-04-29T12:38:28;11.10;;;8.07;;
42332;SDS011;27984;51.476;5.702;2023-04-29T12:40:59;10.32;;;7.63;;
42332;SDS011;27984;51.476;5.702;2023-04-29T12:43:30;12.13;;;8.30;;
42332;SDS011;27984;51.476;5.702;2023-04-29T12:46:01;13.23;;;8.00;;
42332;SDS011;27984;51.476;5.702;2023-04-29T12:48:30;11.82;;;7.97;;
42332;SDS011;27984;51.476;5.702;2023-04-29T12:50:56;10.60;;;7.38;;
42332;SDS011;27984;51.476;5.702;2023-04-29T12:53:24;13.93;;;7.53;;
42332;SDS011;27984;51.476;5.702;2023-04-29T12:55:50;11.52;;;7.55;;
42332;SDS011;27984;51.476;5.702;2023-04-29T12:58:16;10.07;;;7.53;;
42332;SDS011;27984;51.476;5.702;2023-04-29T13:00:41;13.60;;;7.53;;
42332;SDS011;27984;51.476;5.702;2023-04-29T13:03:07;10.73;;;7.72;;
42332;SDS011;27984;51.476;5.702;2023-04-29T13:05:33;10.65;;;7.65;;
42332;SDS011;27984;51.476;5.702;2023-04-29T13:07:59;9.85;;;7.25;;
42332;SDS011;27984;51.476;5.702;2023-04-29T13:10:25;12.20;;;7.80;;
42332;SDS011;27984;51.476;5.702;2023-04-29T13:12:52;9.77;;;7.72;;
42332;SDS011;27984;51.476;5.702;2023-04-29T13:15:18;8.43;;;7.22;;
42332;SDS011;27984;51.476;5.702;2023-04-29T13:17:44;11.40;;;7.32;;
42332;SDS011;27984;51.476;5.702;2023-04-29T13:20:10;11.60;;;7.75;;
42332;SDS011;27984;51.476;5.702;2023-04-29T13:22:36;9.32;;;6.82;;
42332;SDS011;27984;51.476;5.702;2023-04-29T13:25:02;12.90;;;7.20;;
42332;SDS011;27984;51.476;5.702;2023-04-29T13:27:28;10.48;;;7.88;;
42332;SDS011;27984;51.476;5.702;2023-04-29T13:29:54;11.60;;;7.43;;
42332;SDS011;27984;51.476;5.702;2023-04-29T13:32:20;12.27;;;7.50;;
42332;SDS011;27984;51.476;5.702;2023-04-29T13:34:47;10.23;;;7.85;;
42332;SDS011;27984;51.476;5.702;2023-04-29T13:37:14;9.15;;;7.63;;
42332;SDS011;27984;51.476;5.702;2023-04-29T13:39:41;11.95;;;8.02;;
42332;SDS011;27984;51.476;5.702;2023-04-29T13:42:06;12.07;;;8.48;;
42332;SDS011;27984;51.476;5.702;2023-04-29T13:44:32;9.68;;;7.53;;
42332;SDS011;27984;51.476;5.702;2023-04-29T13:46:59;10.45;;;7.32;;
42332;SDS011;27984;51.476;5.702;2023-04-29T13:49:25;8.90;;;6.65;;
42332;SDS011;27984;51.476;5.702;2023-04-29T13:51:51;12.77;;;6.40;;
42332;SDS011;27984;51.476;5.702;2023-04-29T13:54:16;10.20;;;6.85;;
42332;SDS011;27984;51.476;5.702;2023-04-29T13:56:44;9.43;;;6.82;;
42332;SDS011;27984;51.476;5.702;2023-04-29T13:59:10;11.20;;;7.30;;
42332;SDS011;27984;51.476;5.702;2023-04-29T14:01:36;9.75;;;6.90;;
42332;SDS011;27984;51.476;5.702;2023-04-29T14:04:02;9.43;;;6.50;;
42332;SDS011;27984;51.476;5.702;2023-04-29T14:06:27;9.57;;;6.50;;
42332;SDS011;27984;51.476;5.702;2023-04-29T14:08:56;8.93;;;6.90;;
42332;SDS011;27984;51.476;5.702;2023-04-29T14:11:22;8.85;;;6.72;;
42332;SDS011;27984;51.476;5.702;2023-04-29T14:13:47;8.80;;;6.78;;
42332;SDS011;27984;51.476;5.702;2023-04-29T14:16:13;9.23;;;6.35;;
42332;SDS011;27984;51.476;5.702;2023-04-29T14:18:39;8.05;;;6.05;;
42332;SDS011;27984;51.476;5.702;2023-04-29T14:21:04;8.10;;;5.72;;
42332;SDS011;27984;51.476;5.702;2023-04-29T14:23:30;7.53;;;5.35;;
42332;SDS011;27984;51.476;5.702;2023-04-29T14:25:55;8.20;;;5.85;;
42332;SDS011;27984;51.476;5.702;2023-04-29T14:28:21;9.13;;;6.43;;
42332;SDS011;27984;51.476;5.702;2023-04-29T14:30:47;7.85;;;6.10;;
42332;SDS011;27984;51.476;5.702;2023-04-29T14:33:12;8.88;;;5.88;;
42332;SDS011;27984;51.476;5.702;2023-04-29T14:35:38;7.88;;;5.47;;
42332;SDS011;27984;51.476;5.702;2023-04-29T14:38:03;8.35;;;6.13;;
42332;SDS011;27984;51.476;5.702;2023-04-29T14:40:29;9.10;;;5.80;;
42332;SDS011;27984;51.476;5.702;2023-04-29T14:42:54;7.45;;;5.30;;
42332;SDS011;27984;51.476;5.702;2023-04-29T14:45:20;7.15;;;5.32;;
42332;SDS011;27984;51.476;5.702;2023-04-29T14:47:45;6.80;;;5.47;;
42332;SDS011;27984;51.476;5.702;2023-04-29T14:50:11;7.90;;;5.22;;
42332;SDS011;27984;51.476;5.702;2023-04-29T14:52:36;8.77;;;5.47;;
42332;SDS011;27984;51.476;5.702;2023-04-29T14:55:02;6.78;;;5.25;;
42332;SDS011;27984;51.476;5.702;2023-04-29T14:57:27;8.02;;;5.65;;
42332;SDS011;27984;51.476;5.702;2023-04-29T14:59:53;7.45;;;4.78;;
42332;SDS011;27984;51.476;5.702;2023-04-29T15:02:20;7.72;;;5.38;;